Comins, Michigan
Current Conditions -  °F | °C
As of 7:54 AM on Thursday 30 Oct 2014 (Local Time) from KAPN Reporting Station
Overcast Overcast  
Wind Chill:   Ceiling: 6500
Heat Index:   Visibility: 10mi
Dew Point: -1°   Wind: 3mph
Humidity: 92%   Direction: 240°WSW
Pressure: 30.08"   Gusts: NA
Location:  44.8°N, 84.04°W
Report Text: KAPN 301154Z AUTO 24003KT 10SM OVC065 01/M01 A3008 RMK AO2 SLP194 T00061006 10033 21006 53002 TSNO
Loading
Personal Weather Stations






























Interactive Weather Map
Tropical Storm Tracking
New forecast layout! Learn more

10-Day Weather Forecast

Advertisements
Track Severe Weather on mobile